createdAt,value
2018-05-14T00:02:16.342Z,64.42
2018-05-14T00:04:47.377Z,64.64
2018-05-14T00:07:18.357Z,64.06
2018-05-14T00:09:49.375Z,63.96
2018-05-14T00:12:20.367Z,63.57
2018-05-14T00:14:51.363Z,63.60
2018-05-14T00:17:22.387Z,63.23
2018-05-14T00:19:53.366Z,63.02
2018-05-14T00:22:24.357Z,63.08
2018-05-14T00:24:55.323Z,62.94
2018-05-14T00:27:26.376Z,62.92
2018-05-14T00:29:57.396Z,63.32
2018-05-14T00:32:28.391Z,64.14
2018-05-14T00:34:59.369Z,64.10
2018-05-14T00:37:30.412Z,64.41
2018-05-14T00:40:01.412Z,64.27
2018-05-14T00:42:32.436Z,64.08
2018-05-14T00:45:03.436Z,64.16
2018-05-14T00:47:34.472Z,64.35
2018-05-14T00:50:05.480Z,64.42
2018-05-14T00:52:36.515Z,64.52
2018-05-14T00:55:13.771Z,64.61
2018-05-14T00:57:44.813Z,65.12
2018-05-14T01:00:15.799Z,65.44
2018-05-14T01:02:46.844Z,65.11
2018-05-14T01:05:17.811Z,65.03
2018-05-14T01:07:48.823Z,64.91
2018-05-14T01:10:19.829Z,65.00
2018-05-14T01:12:50.854Z,64.76
2018-05-14T01:15:21.822Z,64.56
2018-05-14T01:17:52.814Z,64.33
2018-05-14T01:20:23.787Z,64.46
2018-05-14T01:22:54.796Z,64.29
2018-05-14T01:25:25.791Z,64.19
2018-05-14T01:27:56.762Z,64.26
2018-05-14T01:30:27.808Z,64.04
2018-05-14T01:32:58.796Z,63.82
2018-05-14T01:35:29.840Z,64.07
2018-05-14T01:38:00.831Z,64.40
2018-05-14T01:40:31.848Z,64.43
2018-05-14T01:43:02.799Z,64.47
2018-05-14T01:45:33.810Z,64.90
2018-05-14T01:48:04.790Z,65.00
2018-05-14T01:50:35.775Z,65.30
2018-05-14T01:53:06.804Z,65.16
2018-05-14T01:55:37.814Z,65.34
2018-05-14T01:58:08.834Z,65.56
2018-05-14T02:00:39.808Z,65.37
2018-05-14T02:03:10.856Z,65.19
2018-05-14T02:05:41.930Z,65.14
2018-05-14T02:08:12.920Z,65.05
2018-05-14T02:10:43.944Z,64.95
2018-05-14T02:13:14.988Z,65.53
2018-05-14T02:15:45.982Z,66.15
2018-05-14T02:18:17.092Z,66.36
2018-05-14T02:20:48.053Z,66.92
2018-05-14T02:23:19.105Z,67.13
2018-05-14T02:25:50.078Z,67.40
2018-05-14T02:28:21.094Z,67.39
2018-05-14T02:30:52.094Z,67.36
2018-05-14T02:33:23.144Z,67.23
2018-05-14T02:35:54.132Z,67.16
2018-05-14T02:38:25.149Z,67.21
2018-05-14T02:40:56.138Z,67.56
2018-05-14T02:43:27.144Z,67.83
2018-05-14T02:45:58.115Z,68.07
2018-05-14T02:48:29.116Z,68.07
2018-05-14T02:51:00.086Z,67.89
2018-05-14T02:53:31.094Z,67.94
2018-05-14T02:56:02.050Z,67.81
2018-05-14T02:58:33.056Z,67.79
2018-05-14T03:01:04.149Z,67.81
2018-05-14T03:03:35.110Z,67.95
2018-05-14T03:06:06.133Z,68.13
2018-05-14T03:08:37.141Z,68.33
2018-05-14T03:11:08.090Z,68.37
2018-05-14T03:13:39.236Z,68.34
2018-05-14T03:16:10.225Z,68.32
2018-05-14T03:18:41.251Z,68.42
2018-05-14T03:21:12.254Z,68.45
2018-05-14T03:23:43.258Z,68.58
2018-05-14T03:26:14.230Z,68.55
2018-05-14T03:28:45.256Z,68.67
2018-05-14T03:31:16.232Z,68.80
2018-05-14T03:33:47.254Z,69.05
2018-05-14T03:36:18.246Z,68.92
2018-05-14T03:38:49.295Z,68.94
2018-05-14T03:41:20.277Z,68.81
2018-05-14T03:43:51.282Z,68.71
2018-05-14T03:46:22.291Z,68.86
2018-05-14T03:48:53.295Z,68.88
2018-05-14T03:51:24.336Z,68.95
2018-05-14T03:53:55.321Z,68.86
2018-05-14T03:56:26.376Z,68.71
2018-05-14T03:59:09.456Z,68.59
2018-05-14T04:01:52.666Z,68.55
2018-05-14T04:04:36.118Z,68.49
2018-05-14T04:07:07.109Z,68.27
2018-05-14T04:09:38.092Z,67.96
2018-05-14T04:12:09.096Z,67.42
2018-05-14T04:14:40.103Z,66.78
2018-05-14T04:17:11.938Z,66.12
2018-05-14T04:19:42.951Z,65.52
2018-05-14T04:22:13.916Z,65.22
2018-05-14T04:24:44.968Z,64.80
2018-05-14T04:27:15.962Z,64.58
2018-05-14T04:29:47.281Z,64.30
2018-05-14T04:32:18.273Z,64.00
2018-05-14T04:34:49.251Z,63.48
2018-05-14T04:37:20.214Z,62.97
2018-05-14T04:39:51.202Z,62.44
2018-05-14T04:42:22.172Z,61.74
2018-05-14T04:44:53.201Z,61.30
2018-05-14T04:47:24.203Z,60.56
2018-05-14T04:49:55.252Z,59.86
2018-05-14T04:52:26.273Z,59.54
2018-05-14T04:54:57.295Z,59.30
2018-05-14T04:57:28.293Z,59.17
2018-05-14T04:59:59.254Z,58.97
2018-05-14T05:02:30.262Z,58.62
2018-05-14T05:05:01.265Z,58.05
2018-05-14T05:07:32.250Z,57.18
2018-05-14T05:10:03.304Z,56.51
2018-05-14T05:12:34.317Z,56.12
2018-05-14T05:15:05.360Z,55.78
2018-05-14T05:17:36.356Z,55.61
2018-05-14T05:20:07.448Z,55.01
2018-05-14T05:22:39.283Z,54.48
2018-05-14T05:25:10.289Z,54.17
2018-05-14T05:27:41.344Z,54.20
2018-05-14T05:30:12.380Z,54.62
2018-05-14T05:32:43.393Z,54.87
2018-05-14T05:35:14.429Z,54.81
2018-05-14T05:37:45.547Z,55.17
2018-05-14T05:40:16.517Z,55.48
2018-05-14T05:42:47.543Z,55.65
2018-05-14T05:45:18.617Z,55.71
2018-05-14T05:47:49.586Z,55.64
2018-05-14T05:50:20.608Z,55.21
2018-05-14T05:52:51.598Z,54.62
2018-05-14T05:55:29.548Z,53.54
2018-05-14T05:58:00.536Z,52.92
2018-05-14T06:00:31.543Z,52.51
2018-05-14T06:03:02.579Z,51.66
2018-05-14T06:05:33.608Z,49.25
2018-05-14T06:10:42.687Z,41.07
2018-05-14T06:13:13.641Z,36.49
2018-05-14T06:15:44.642Z,32.09
2018-05-14T06:18:15.628Z,28.86
2018-05-14T06:20:46.650Z,28.23
2018-05-14T06:23:17.607Z,27.99
2018-05-14T06:25:48.651Z,27.25
2018-05-14T06:28:19.634Z,26.01
2018-05-14T06:30:50.620Z,25.05
2018-05-14T06:33:21.645Z,24.26
2018-05-14T06:35:52.630Z,22.32
2018-05-14T06:38:23.612Z,22.43
2018-05-14T06:40:54.655Z,21.08
2018-05-14T06:43:25.644Z,21.85
2018-05-14T06:45:56.698Z,23.68
2018-05-14T06:48:27.705Z,21.90
2018-05-14T06:50:58.747Z,17.56
2018-05-14T06:53:29.769Z,16.07
2018-05-14T06:56:00.764Z,13.24
2018-05-14T06:58:31.791Z,11.42
2018-05-14T07:01:02.816Z,12.95
2018-05-14T07:03:33.828Z,15.19
2018-05-14T07:06:04.835Z,15.50
2018-05-14T07:08:35.793Z,14.84
2018-05-14T07:11:06.810Z,15.82
2018-05-14T07:13:37.806Z,17.45
2018-05-14T07:16:08.837Z,18.50
2018-05-14T07:18:39.913Z,19.45
2018-05-14T07:21:10.915Z,20.23
2018-05-14T07:23:41.994Z,20.19
2018-05-14T07:26:12.992Z,18.65
2018-05-14T07:28:43.996Z,16.80
2018-05-14T07:31:14.961Z,16.88
2018-05-14T07:33:45.946Z,17.29
2018-05-14T07:36:16.954Z,18.33
2018-05-14T07:38:48.016Z,17.94
2018-05-14T07:41:19.001Z,18.71
2018-05-14T07:43:50.100Z,18.98
2018-05-14T07:46:21.031Z,19.90
2018-05-14T07:48:52.066Z,20.34
2018-05-14T07:51:23.120Z,20.47
2018-05-14T07:53:54.130Z,21.87
2018-05-14T07:56:25.133Z,23.14
2018-05-14T07:58:56.125Z,25.10
2018-05-14T08:01:27.165Z,26.55
2018-05-14T08:03:58.201Z,28.41
2018-05-14T08:06:29.213Z,30.20
2018-05-14T08:09:00.186Z,31.84
2018-05-14T08:11:31.171Z,32.69
2018-05-14T08:14:02.226Z,33.70
2018-05-14T08:16:33.259Z,34.28
2018-05-14T08:19:04.234Z,34.03
2018-05-14T08:21:35.265Z,33.41
2018-05-14T08:24:06.254Z,32.22
2018-05-14T08:26:37.272Z,31.78
2018-05-14T08:29:08.366Z,30.77
2018-05-14T08:31:39.280Z,29.63
2018-05-14T08:34:10.269Z,28.12
2018-05-14T08:36:41.249Z,27.07
2018-05-14T08:39:12.224Z,26.75
2018-05-14T08:41:43.214Z,27.23
2018-05-14T08:44:14.201Z,27.99
2018-05-14T08:46:45.182Z,28.36
2018-05-14T08:49:16.196Z,28.40
2018-05-14T08:51:47.187Z,29.48
2018-05-14T08:54:18.312Z,30.13
2018-05-14T08:56:49.203Z,30.79
2018-05-14T08:59:20.162Z,31.28
2018-05-14T09:01:51.153Z,31.33
2018-05-14T09:04:22.162Z,32.02
2018-05-14T09:06:53.163Z,31.73
2018-05-14T09:09:24.239Z,32.45
2018-05-14T09:11:55.258Z,33.84
2018-05-14T09:14:26.268Z,35.01
2018-05-14T09:16:57.278Z,35.39
2018-05-14T09:19:28.393Z,36.27
2018-05-14T09:21:59.263Z,37.19
2018-05-14T09:24:30.307Z,37.93
2018-05-14T09:27:01.260Z,37.88
2018-05-14T09:29:32.254Z,37.89
2018-05-14T09:32:03.304Z,37.72
2018-05-14T09:34:34.279Z,37.71
2018-05-14T09:37:05.269Z,36.76
2018-05-14T09:39:36.263Z,35.52
2018-05-14T09:42:07.277Z,35.00
2018-05-14T09:44:38.409Z,35.56
2018-05-14T09:47:09.298Z,35.58
2018-05-14T09:49:40.292Z,35.22
2018-05-14T09:52:11.281Z,34.39
2018-05-14T09:54:42.268Z,32.95
2018-05-14T09:57:13.316Z,31.82
2018-05-14T09:59:44.282Z,31.23
2018-05-14T10:02:15.266Z,30.48
2018-05-14T10:04:46.250Z,31.04
2018-05-14T10:07:17.255Z,31.63
2018-05-14T10:09:48.308Z,31.75
2018-05-14T10:12:19.330Z,32.78
2018-05-14T10:14:50.285Z,34.32
2018-05-14T10:17:21.302Z,35.85
2018-05-14T10:19:52.304Z,36.76
2018-05-14T10:22:23.360Z,38.19
2018-05-14T10:24:54.341Z,38.96
2018-05-14T10:27:25.356Z,39.06
2018-05-14T10:29:56.308Z,38.46
2018-05-14T10:32:27.360Z,37.52
2018-05-14T10:34:58.381Z,36.10
2018-05-14T10:37:29.327Z,35.11
2018-05-14T10:40:00.326Z,33.90
2018-05-14T10:42:31.279Z,32.84
2018-05-14T10:45:02.270Z,31.94
2018-05-14T10:47:33.312Z,30.83
2018-05-14T10:50:04.391Z,29.69
2018-05-14T10:52:42.498Z,29.21
2018-05-14T10:55:13.506Z,28.42
2018-05-14T10:57:44.567Z,28.23
2018-05-14T11:00:15.588Z,28.83
2018-05-14T11:02:46.600Z,30.07
2018-05-14T11:05:17.588Z,32.33
2018-05-14T11:07:48.586Z,33.81
2018-05-14T11:10:19.578Z,34.81
2018-05-14T11:12:50.588Z,35.50
2018-05-14T11:15:21.567Z,35.58
2018-05-14T11:17:52.558Z,35.61
2018-05-14T11:20:23.594Z,35.76
2018-05-14T11:22:54.665Z,34.85
2018-05-14T11:25:25.690Z,33.90
2018-05-14T11:27:56.755Z,34.05
2018-05-14T11:30:27.702Z,33.64
2018-05-14T11:32:58.744Z,33.48
2018-05-14T11:35:29.777Z,32.17
2018-05-14T11:38:00.682Z,30.70
2018-05-14T11:40:31.679Z,29.66
2018-05-14T11:43:02.630Z,28.88
2018-05-14T11:45:33.655Z,28.64
2018-05-14T11:48:04.645Z,28.60
2018-05-14T11:50:35.695Z,28.86
2018-05-14T11:53:06.705Z,28.68
2018-05-14T11:55:37.724Z,27.92
2018-05-14T11:58:08.702Z,27.77
2018-05-14T12:00:39.702Z,27.49
2018-05-14T12:03:10.813Z,27.66
2018-05-14T12:05:41.813Z,27.75
2018-05-14T12:08:12.830Z,27.46
2018-05-14T12:10:43.786Z,27.05
2018-05-14T12:13:14.796Z,26.50
2018-05-14T12:15:45.799Z,26.28
2018-05-14T12:18:16.814Z,25.60
2018-05-14T12:20:47.783Z,25.69
2018-05-14T12:23:18.776Z,25.58
2018-05-14T12:25:49.798Z,25.40
2018-05-14T12:28:20.813Z,25.40
2018-05-14T12:30:51.826Z,25.89
2018-05-14T12:33:22.828Z,26.54
2018-05-14T12:35:53.824Z,26.21
2018-05-14T12:38:24.796Z,26.27
2018-05-14T12:40:56.215Z,26.08
2018-05-14T12:43:27.213Z,25.95
2018-05-14T12:45:58.256Z,25.77
2018-05-14T12:48:29.271Z,25.88
2018-05-14T12:51:00.300Z,26.58
2018-05-14T12:53:31.309Z,27.09
2018-05-14T12:56:02.332Z,27.06
2018-05-14T12:58:33.324Z,26.82
2018-05-14T13:01:04.327Z,26.61
2018-05-14T13:03:35.403Z,26.46
2018-05-14T13:06:06.364Z,26.45
2018-05-14T13:08:37.397Z,26.54
2018-05-14T13:11:08.418Z,26.45
2018-05-14T13:13:39.410Z,27.02
2018-05-14T13:16:10.447Z,27.08
2018-05-14T13:18:41.418Z,27.40
2018-05-14T13:21:12.388Z,27.54
2018-05-14T13:23:43.386Z,27.50
2018-05-14T13:26:14.404Z,27.49
2018-05-14T13:28:48.383Z,26.84
2018-05-14T13:31:19.454Z,26.70
2018-05-14T13:33:50.444Z,26.62
2018-05-14T13:36:21.534Z,27.31
2018-05-14T13:38:52.506Z,27.71
2018-05-14T13:41:23.482Z,28.66
2018-05-14T13:43:54.451Z,29.23
2018-05-14T13:46:25.448Z,29.83
2018-05-14T13:48:56.474Z,29.63
2018-05-14T13:51:27.475Z,29.86
2018-05-14T13:53:58.494Z,30.35
2018-05-14T13:56:29.494Z,30.54
2018-05-14T13:59:00.516Z,30.58
2018-05-14T14:01:31.529Z,30.73
2018-05-14T14:04:02.536Z,30.85
2018-05-14T14:06:33.514Z,30.59
2018-05-14T14:09:04.530Z,30.40
2018-05-14T14:11:35.504Z,30.37
2018-05-14T14:14:06.577Z,31.64
2018-05-14T14:16:37.621Z,31.36
2018-05-14T14:19:08.579Z,31.25
2018-05-14T14:21:39.590Z,30.83
2018-05-14T14:24:10.615Z,30.08
2018-05-14T14:26:41.611Z,28.89
2018-05-14T14:29:12.633Z,29.17
2018-05-14T14:31:43.678Z,29.18
2018-05-14T14:34:14.753Z,27.82
2018-05-14T14:36:45.731Z,27.48
2018-05-14T14:39:16.753Z,27.77
2018-05-14T14:41:47.831Z,27.08
2018-05-14T14:44:18.796Z,28.44
2018-05-14T14:46:49.782Z,29.13
2018-05-14T14:49:20.816Z,29.75
2018-05-14T14:51:51.844Z,30.22
2018-05-14T14:54:22.872Z,31.00
2018-05-14T14:56:53.873Z,31.63
2018-05-14T14:59:24.890Z,32.39
2018-05-14T15:01:55.882Z,32.23
2018-05-14T15:04:26.909Z,32.79
2018-05-14T15:06:57.907Z,32.18
2018-05-14T15:09:28.942Z,31.44
2018-05-14T15:11:59.907Z,29.28
2018-05-14T15:14:30.929Z,28.51
2018-05-14T15:17:01.960Z,29.43
2018-05-14T15:19:32.957Z,29.54
2018-05-14T15:22:03.970Z,29.65
2018-05-14T15:24:34.949Z,29.57
2018-05-14T15:27:05.993Z,29.65
2018-05-14T15:29:36.976Z,29.87
2018-05-14T15:32:08.012Z,30.04
2018-05-14T15:34:39.025Z,30.54
2018-05-14T15:37:10.089Z,29.82
2018-05-14T15:39:41.069Z,29.96
2018-05-14T15:42:12.041Z,30.41
2018-05-14T15:44:43.012Z,30.93
2018-05-14T15:47:14.030Z,31.83
2018-05-14T15:49:45.319Z,32.04
2018-05-14T15:52:16.346Z,31.90
2018-05-14T15:54:47.380Z,32.59
2018-05-14T15:57:18.358Z,33.02
2018-05-14T15:59:49.363Z,33.65
2018-05-14T16:02:20.363Z,33.72
2018-05-14T16:07:24.487Z,34.73
2018-05-14T16:09:55.461Z,34.75
2018-05-14T16:12:26.518Z,34.85
2018-05-14T16:14:57.487Z,35.12
2018-05-14T16:17:28.578Z,35.35
2018-05-14T16:19:59.590Z,35.00
2018-05-14T16:22:30.588Z,34.58
2018-05-14T16:25:01.588Z,34.36
2018-05-14T16:27:32.588Z,34.55
2018-05-14T16:30:03.651Z,35.12
2018-05-14T16:32:34.665Z,35.23
2018-05-14T16:35:05.682Z,35.67
2018-05-14T16:37:36.716Z,35.59
2018-05-14T16:40:07.781Z,35.66
2018-05-14T16:42:38.741Z,36.06
2018-05-14T16:45:09.827Z,36.32
2018-05-14T16:47:40.869Z,36.78
2018-05-14T16:50:11.969Z,36.67
2018-05-14T16:52:42.959Z,36.90
2018-05-14T16:55:14.014Z,36.91
2018-05-14T16:57:45.086Z,36.51
2018-05-14T17:00:16.050Z,36.70
2018-05-14T17:02:47.034Z,36.64
2018-05-14T17:05:18.025Z,36.34
2018-05-14T17:07:49.052Z,36.37
2018-05-14T17:10:20.134Z,36.49
2018-05-14T17:12:51.118Z,36.58
2018-05-14T17:15:22.072Z,36.50
2018-05-14T17:17:53.070Z,36.73
2018-05-14T17:20:24.074Z,36.38
2018-05-14T17:22:55.066Z,36.02
2018-05-14T17:25:26.079Z,35.99
2018-05-14T17:27:57.140Z,36.01
2018-05-14T17:30:28.128Z,35.71
2018-05-14T17:32:59.138Z,35.88
2018-05-14T17:35:30.163Z,35.91
2018-05-14T17:38:01.197Z,35.63
2018-05-14T17:40:32.224Z,35.77
2018-05-14T17:43:03.276Z,35.30
2018-05-14T17:45:34.251Z,35.70
2018-05-14T17:48:05.264Z,35.79
2018-05-14T17:50:36.249Z,36.14
2018-05-14T17:53:07.276Z,36.35
2018-05-14T17:55:38.237Z,36.60
2018-05-14T17:58:09.235Z,36.72
2018-05-14T18:00:40.222Z,36.68
2018-05-14T18:03:11.239Z,36.75
2018-05-14T18:05:42.223Z,36.88
2018-05-14T18:08:13.303Z,37.01
2018-05-14T18:10:44.332Z,37.06
2018-05-14T18:13:15.408Z,37.25
2018-05-14T18:15:46.402Z,37.63
2018-05-14T18:18:17.425Z,38.08
2018-05-14T18:20:48.452Z,38.25
2018-05-14T18:23:23.244Z,38.57
2018-05-14T18:25:54.273Z,38.79
2018-05-14T18:28:31.426Z,39.02
2018-05-14T18:31:02.410Z,39.26
2018-05-14T18:33:33.393Z,39.21
2018-05-14T18:36:04.420Z,39.25
2018-05-14T18:38:35.424Z,39.35
2018-05-14T18:41:06.412Z,39.74
2018-05-14T18:43:37.463Z,40.17
2018-05-14T18:46:08.455Z,40.55
2018-05-14T18:48:39.492Z,40.86
2018-05-14T18:51:10.490Z,41.18
2018-05-14T18:53:41.515Z,41.47
2018-05-14T18:56:12.515Z,42.06
2018-05-14T18:58:43.525Z,42.46
2018-05-14T19:01:14.540Z,42.90
2018-05-14T19:03:45.573Z,43.30
2018-05-14T19:06:16.586Z,43.35
2018-05-14T19:08:47.655Z,43.56
2018-05-14T19:11:24.681Z,43.27
2018-05-14T19:13:55.698Z,42.93
2018-05-14T19:16:32.775Z,42.77
2018-05-14T19:19:04.050Z,42.14
2018-05-14T19:21:35.062Z,41.94
2018-05-14T19:24:06.090Z,41.65
2018-05-14T19:26:37.131Z,41.40
2018-05-14T19:29:14.063Z,41.01
2018-05-14T19:31:45.112Z,40.68
2018-05-14T19:34:22.236Z,40.43
2018-05-14T19:36:53.233Z,40.36
2018-05-14T19:39:30.451Z,40.35
2018-05-14T19:42:01.467Z,40.51
2018-05-14T19:44:32.484Z,40.62
2018-05-14T19:47:03.634Z,40.75
2018-05-14T19:49:34.621Z,40.88
2018-05-14T19:52:05.603Z,41.11
2018-05-14T19:54:36.580Z,41.70
2018-05-14T19:57:07.621Z,42.11
2018-05-14T19:59:38.563Z,42.42
2018-05-14T20:02:09.615Z,42.77
2018-05-14T20:04:40.593Z,43.37
2018-05-14T20:07:11.626Z,43.53
2018-05-14T20:09:42.628Z,43.59
2018-05-14T20:12:13.662Z,43.69
2018-05-14T20:14:44.685Z,43.81
2018-05-14T20:17:15.663Z,44.20
2018-05-14T20:19:46.682Z,44.41
2018-05-14T20:22:17.686Z,44.71
2018-05-14T20:24:48.745Z,44.88
2018-05-14T20:27:19.782Z,44.97
2018-05-14T20:29:50.998Z,45.01
2018-05-14T20:32:21.980Z,45.20
2018-05-14T20:34:53.025Z,45.36
2018-05-14T20:37:24.087Z,45.66
2018-05-14T20:39:55.196Z,45.76
2018-05-14T20:42:26.238Z,45.66
2018-05-14T20:44:57.221Z,45.85
2018-05-14T20:47:28.250Z,46.01
2018-05-14T20:49:59.218Z,46.26
2018-05-14T20:52:30.275Z,46.43
2018-05-14T20:55:01.288Z,46.48
2018-05-14T20:57:32.352Z,46.63
2018-05-14T21:00:03.392Z,46.69
2018-05-14T21:02:34.438Z,46.61
2018-05-14T21:05:05.475Z,46.75
2018-05-14T21:07:36.487Z,47.03
2018-05-14T21:10:07.524Z,47.31
2018-05-14T21:12:38.487Z,47.45
2018-05-14T21:15:09.540Z,47.64
2018-05-14T21:17:40.556Z,48.05
2018-05-14T21:20:18.848Z,48.47
2018-05-14T21:22:49.839Z,48.64
2018-05-14T21:25:20.850Z,48.82
2018-05-14T21:27:51.839Z,48.71
2018-05-14T21:30:22.830Z,48.99
2018-05-14T21:32:53.784Z,48.91
2018-05-14T21:35:24.843Z,48.88
2018-05-14T21:37:55.825Z,48.65
2018-05-14T21:40:26.866Z,48.87
2018-05-14T21:42:57.834Z,48.94
2018-05-14T21:45:28.860Z,49.22
2018-05-14T21:47:59.848Z,49.20
2018-05-14T21:50:30.870Z,49.12
2018-05-14T21:53:01.959Z,49.37
2018-05-14T21:55:32.927Z,49.64
2018-05-14T21:58:03.951Z,49.94
2018-05-14T22:00:34.962Z,50.07
2018-05-14T22:03:05.989Z,50.16
2018-05-14T22:05:49.067Z,50.23
2018-05-14T22:08:20.127Z,50.45
2018-05-14T22:10:51.139Z,50.54
2018-05-14T22:13:22.170Z,50.51
2018-05-14T22:15:53.137Z,51.01
2018-05-14T22:18:24.244Z,50.90
2018-05-14T22:20:55.152Z,50.83
2018-05-14T22:23:26.178Z,51.04
2018-05-14T22:25:57.178Z,50.85
2018-05-14T22:28:28.189Z,50.95
2018-05-14T22:30:59.178Z,50.86
2018-05-14T22:33:30.183Z,50.67
2018-05-14T22:36:01.218Z,50.91
2018-05-14T22:38:32.276Z,51.23
2018-05-14T22:41:03.243Z,51.32
2018-05-14T22:43:34.225Z,50.96
2018-05-14T22:46:05.253Z,50.99
2018-05-14T22:48:36.266Z,51.05
2018-05-14T22:51:07.248Z,51.00
2018-05-14T22:53:38.304Z,51.04
2018-05-14T22:56:09.306Z,51.10
2018-05-14T22:58:40.303Z,51.13
2018-05-14T23:01:11.307Z,51.40
2018-05-14T23:03:42.288Z,51.35
2018-05-14T23:06:13.278Z,51.20
2018-05-14T23:08:44.304Z,51.36
2018-05-14T23:11:15.300Z,51.37
2018-05-14T23:13:46.323Z,51.47
2018-05-14T23:16:17.308Z,51.79
2018-05-14T23:18:48.309Z,51.94
2018-05-14T23:21:19.293Z,51.89
2018-05-14T23:23:50.313Z,51.96
2018-05-14T23:26:21.293Z,52.15
2018-05-14T23:28:52.284Z,51.85
2018-05-14T23:31:23.252Z,51.96
2018-05-14T23:33:54.280Z,52.25
2018-05-14T23:36:25.246Z,52.10
2018-05-14T23:38:56.257Z,52.31
2018-05-14T23:41:27.237Z,52.13
2018-05-14T23:43:58.204Z,51.94
2018-05-14T23:46:29.244Z,51.88
2018-05-14T23:49:00.213Z,51.84
2018-05-14T23:51:31.220Z,51.67
2018-05-14T23:54:02.283Z,51.66
2018-05-14T23:56:33.338Z,51.44
2018-05-14T23:59:04.346Z,51.63
